Time;durP1;ratioP1;P1;durP2;ratioP2;P2;SDS_P1;SDS_P2;PMS_P1;PMS_P2;Temp;Humidity;BMP_temperature;BMP_pressure;BME280_temperature;BME280_humidity;BME280_pressure;Samples;Min_cycle;Max_cycle;Signal;HPM_P1;HPM_P2
2021/01/08 03:47:18;;;;;;;51.63;26.80;;;5.50;78.30;;;;;;5004904;24;20383;-71
2021/01/08 03:49:43;;;;;;;46.70;26.05;;;5.50;78.20;;;;;;4812634;29;20094;-72
2021/01/08 03:52:09;;;;;;;52.38;25.63;;;5.50;78.10;;;;;;4813553;29;20054;-72
2021/01/08 03:54:36;;;;;;;50.50;28.05;;;5.50;78.20;;;;;;4804053;29;20037;-71
2021/01/08 03:57:03;;;;;;;50.75;26.35;;;5.50;78.20;;;;;;4815514;29;20023;-72
2021/01/08 03:59:28;;;;;;;;;;;5.50;78.00;;;;;;4814590;29;20039;-72
2021/01/08 04:01:54;;;;;;;45.13;25.07;;;5.60;78.10;;;;;;4801803;29;19917;-71
2021/01/08 04:04:21;;;;;;;43.67;22.80;;;5.50;78.00;;;;;;4796303;29;20247;-71
2021/01/08 04:06:47;;;;;;;46.47;24.88;;;5.50;78.00;;;;;;4797120;29;20218;-72
2021/01/08 04:09:12;;;;;;;46.28;25.83;;;5.60;78.00;;;;;;4796186;29;20080;-72
2021/01/08 04:11:38;;;;;;;41.83;24.25;;;5.60;78.00;;;;;;4797354;29;20027;-72
2021/01/08 04:14:04;;;;;;;44.50;24.20;;;5.60;78.50;;;;;;4796121;29;20035;-72
2021/01/08 04:16:36;;;;;;;46.03;25.52;;;5.60;77.90;;;;;;4797123;29;20019;-72
2021/01/08 04:19:02;;;;;;;44.08;25.00;;;5.50;77.80;;;;;;4797383;29;20040;-72
2021/01/08 04:21:28;;;;;;;49.15;26.30;;;5.50;77.70;;;;;;4797415;29;20031;-72
2021/01/08 04:23:54;;;;;;;47.60;25.52;;;5.50;77.50;;;;;;4797313;29;20361;-71
2021/01/08 04:26:21;;;;;;;46.63;25.42;;;5.50;77.60;;;;;;4797304;29;20036;-72
2021/01/08 04:28:46;;;;;;;44.25;25.42;;;5.50;77.60;;;;;;4809007;29;20058;-72
2021/01/08 04:31:12;;;;;;;49.28;27.50;;;5.50;77.80;;;;;;4797172;29;20027;-72
2021/01/08 04:33:40;;;;;;;44.88;24.45;;;5.50;77.90;;;;;;4797225;29;20073;-72
2021/01/08 04:36:07;;;;;;;53.92;28.15;;;5.50;77.90;;;;;;4797136;29;20168;-72
2021/01/08 04:38:33;;;;;;;46.03;26.48;;;5.50;78.00;;;;;;4797827;29;20035;-72
2021/01/08 04:40:58;;;;;;;50.58;27.23;;;5.50;77.90;;;;;;4799220;30;20098;-71
2021/01/08 04:43:24;;;;;;;49.75;26.92;;;5.50;77.80;;;;;;4800533;29;20076;-71
2021/01/08 04:45:50;;;;;;;45.75;24.58;;;5.50;77.80;;;;;;4802344;29;20055;-72
2021/01/08 04:48:17;;;;;;;48.85;25.60;;;5.40;78.00;;;;;;4817358;29;20203;-71
2021/01/08 04:50:42;;;;;;;50.08;25.95;;;5.40;78.10;;;;;;4802150;29;20060;-72
2021/01/08 04:53:09;;;;;;;49.63;26.25;;;5.40;78.20;;;;;;4827135;29;20393;-72
2021/01/08 04:55:36;;;;;;;50.72;25.67;;;5.40;78.90;;;;;;4835294;29;20042;-72
2021/01/08 04:58:04;;;;;;;52.60;28.27;;;5.30;78.40;;;;;;4835394;29;20038;-72
2021/01/08 05:00:30;;;;;;;53.92;27.05;;;5.30;78.50;;;;;;4829167;29;20102;-72
2021/01/08 05:02:57;;;;;;;45.97;24.70;;;5.30;78.50;;;;;;4784154;30;20111;-72
2021/01/08 05:05:23;;;;;;;;;;;5.30;78.50;;;;;;4799510;30;20341;-72
2021/01/08 05:07:49;;;;;;;48.37;25.17;;;5.30;78.60;;;;;;4800098;29;19913;-72
2021/01/08 05:10:14;;;;;;;44.03;23.75;;;5.30;78.60;;;;;;4798931;30;20253;-72
2021/01/08 05:12:42;;;;;;;45.78;25.95;;;5.30;78.50;;;;;;4800170;29;20024;-72
2021/01/08 05:15:12;;;;;;;48.45;26.02;;;5.30;78.40;;;;;;4799810;29;20035;-72
2021/01/08 05:17:43;;;;;;;47.92;26.23;;;5.40;78.30;;;;;;4815638;29;20030;-72
2021/01/08 05:20:10;;;;;;;46.40;24.90;;;5.40;78.30;;;;;;4817896;29;20049;-72
2021/01/08 05:22:38;;;;;;;49.30;25.90;;;5.40;78.30;;;;;;4817993;29;20200;-72
2021/01/08 05:25:09;;;;;;;41.80;24.65;;;5.40;78.10;;;;;;4817681;29;20111;-72
2021/01/08 05:27:35;;;;;;;46.35;24.73;;;5.40;78.10;;;;;;4809277;29;20346;-72
2021/01/08 05:30:27;;;;;;;48.63;26.13;;;5.40;78.00;;;;;;4798440;30;20095;-72
2021/01/08 05:32:58;;;;;;;51.38;26.23;;;5.40;78.20;;;;;;4762174;30;20036;-72
2021/01/08 05:35:24;;;;;;;48.70;26.27;;;5.40;78.20;;;;;;4761964;30;20045;-72
2021/01/08 05:37:53;;;;;;;45.22;24.73;;;5.40;78.20;;;;;;4747238;30;20144;-72
2021/01/08 05:40:25;;;;;;;47.95;26.90;;;5.40;78.10;;;;;;4765183;30;20044;-71
2021/01/08 05:42:55;;;;;;;46.72;26.02;;;5.40;78.10;;;;;;4761708;30;20059;-72
2021/01/08 05:45:21;;;;;;;49.45;27.55;;;5.40;78.00;;;;;;4778517;30;20331;-72
2021/01/08 05:47:51;;;;;;;48.13;25.38;;;5.50;78.00;;;;;;4768184;30;20048;-72
2021/01/08 05:50:20;;;;;;;44.70;25.58;;;5.50;77.90;;;;;;4769740;30;20123;-72
2021/01/08 05:52:50;;;;;;;53.45;27.15;;;5.50;77.80;;;;;;4766159;30;20200;-72
2021/01/08 05:55:16;;;;;;;44.00;23.48;;;5.50;77.70;;;;;;4756532;30;20122;-72
2021/01/08 05:57:42;;;;;;;45.58;25.80;;;5.50;77.60;;;;;;4766421;30;20105;-72
2021/01/08 06:00:09;;;;;;;53.42;25.67;;;5.50;77.60;;;;;;4756129;30;20028;-71
2021/01/08 06:02:36;;;;;;;47.75;26.55;;;5.50;77.60;;;;;;4770089;30;20056;-71
2021/01/08 06:05:05;;;;;;;45.67;25.65;;;5.50;77.40;;;;;;4770682;30;20027;-72
2021/01/08 06:07:35;;;;;;;46.88;25.70;;;5.50;77.50;;;;;;4769607;30;20071;-72
2021/01/08 06:10:04;;;;;;;48.88;25.52;;;5.50;77.50;;;;;;4789349;29;20038;-72
2021/01/08 06:12:38;;;;;;;52.03;27.88;;;5.50;77.40;;;;;;4806413;29;20039;-73
2021/01/08 06:15:11;;;;;;;49.00;26.13;;;5.40;77.60;;;;;;4805771;29;20030;-73
2021/01/08 06:17:38;;;;;;;50.45;27.08;;;5.40;77.60;;;;;;4805626;29;20111;-73
2021/01/08 06:20:07;;;;;;;;;;;5.40;77.60;;;;;;4806697;29;20030;-73
2021/01/08 06:22:39;;;;;;;53.40;26.67;;;5.40;77.50;;;;;;4806797;29;19980;-73
2021/01/08 06:25:11;;;;;;;51.10;26.75;;;5.40;77.50;;;;;;4809061;29;20550;-73
2021/01/08 06:27:37;;;;;;;43.78;24.38;;;5.30;77.60;;;;;;4807094;29;20046;-73
2021/01/08 06:30:06;;;;;;;50.50;26.63;;;5.30;77.90;;;;;;4805941;29;20031;-73
2021/01/08 06:32:33;;;;;;;49.88;25.98;;;5.30;78.00;;;;;;4805266;29;20031;-73
2021/01/08 06:35:06;;;;;;;50.45;27.50;;;5.30;78.00;;;;;;4807568;29;20034;-74
2021/01/08 06:37:40;;;;;;;52.00;27.02;;;5.20;78.20;;;;;;4808403;29;20203;-74
2021/01/08 06:40:08;;;;;;;54.28;29.33;;;5.20;78.40;;;;;;4802674;29;20038;-73
2021/01/08 06:42:43;;;;;;;54.45;28.58;;;5.20;78.70;;;;;;4805941;29;20073;-73
2021/01/08 06:45:13;;;;;;;55.03;28.58;;;5.10;78.70;;;;;;4806491;29;20398;-73
2021/01/08 06:47:44;;;;;;;60.20;30.40;;;5.20;78.90;;;;;;4806271;29;20034;-73
2021/01/08 06:50:16;;;;;;;68.95;33.30;;;5.20;79.00;;;;;;4807983;29;20019;-73
2021/01/08 06:52:44;;;;;;;75.30;33.85;;;5.20;79.20;;;;;;4812587;29;20030;-73
2021/01/08 06:55:21;;;;;;;69.40;34.80;;;5.20;79.00;;;;;;4801847;29;20106;-74
2021/01/08 06:57:48;;;;;;;;;;;5.30;79.00;;;;;;4798007;29;20042;-73
2021/01/08 07:00:17;;;;;;;;;;;5.20;79.00;;;;;;4797795;29;19906;-73
2021/01/08 07:02:43;;;;;;;53.20;26.77;;;5.20;79.10;;;;;;4797570;29;19917;-73
2021/01/08 07:05:09;;;;;;;53.85;28.67;;;5.30;79.00;;;;;;4797657;30;20060;-74
2021/01/08 07:07:36;;;;;;;62.83;30.48;;;5.30;78.90;;;;;;4797657;30;20027;-73
2021/01/08 07:10:03;;;;;;;53.30;27.85;;;5.20;78.90;;;;;;4807775;29;20027;-73
2021/01/08 07:12:28;;;;;;;54.70;28.75;;;5.20;79.80;;;;;;4813251;29;20322;-74
2021/01/08 07:14:54;;;;;;;50.78;27.15;;;5.20;79.20;;;;;;4802284;29;20099;-74
2021/01/08 07:17:30;;;;;;;45.72;25.33;;;5.20;79.20;;;;;;4806382;29;20027;-73
2021/01/08 07:19:58;;;;;;;49.17;26.40;;;5.20;79.40;;;;;;4804661;29;20027;-74
2021/01/08 07:22:32;;;;;;;49.05;24.42;;;5.30;79.50;;;;;;4806862;29;20162;-73
2021/01/08 07:24:58;;;;;;;48.75;25.38;;;5.30;79.50;;;;;;4805528;29;20050;-73
2021/01/08 07:27:25;;;;;;;54.65;25.58;;;5.30;79.50;;;;;;4802167;29;20038;-74
2021/01/08 07:29:50;;;;;;;;;;;5.40;79.60;;;;;;4814830;29;20330;-73
2021/01/08 07:32:36;;;;;;;44.67;23.77;;;5.40;79.50;;;;;;4815640;29;19917;-73
2021/01/08 07:35:18;;;;;;;43.47;24.85;;;5.40;79.40;;;;;;4809604;29;20027;-73
2021/01/08 07:38:08;;;;;;;43.60;23.33;;;5.50;79.40;;;;;;4806859;29;20035;-74
2021/01/08 07:40:36;;;;;;;44.95;23.90;;;5.50;79.30;;;;;;4732567;30;20344;-73
2021/01/08 07:43:07;;;;;;;42.08;23.90;;;5.50;79.20;;;;;;4734907;30;20046;-73
2021/01/08 07:45:55;;;;;;;43.30;23.85;;;5.50;79.20;;;;;;4734313;30;20043;-73
2021/01/08 07:48:27;;;;;;;43.50;23.23;;;5.50;79.50;;;;;;4748660;30;20052;-73
2021/01/08 07:50:58;;;;;;;45.88;24.23;;;5.50;79.50;;;;;;4750892;30;20040;-73
2021/01/08 07:53:42;;;;;;;47.13;25.80;;;5.60;79.50;;;;;;4750989;30;20100;-73
2021/01/08 07:56:15;;;;;;;47.05;23.70;;;5.60;79.50;;;;;;4733893;30;20017;-73
2021/01/08 07:58:43;;;;;;;44.72;24.45;;;5.70;79.50;;;;;;4750264;30;20075;-74
2021/01/08 08:01:10;;;;;;;37.25;22.60;;;5.70;79.40;;;;;;4751208;30;20047;-73
2021/01/08 08:03:37;;;;;;;43.92;22.95;;;5.70;79.20;;;;;;4749402;30;20059;-74
2021/01/08 08:06:04;;;;;;;37.00;21.95;;;5.80;79.30;;;;;;4749376;30;20032;-73
2021/01/08 08:08:30;;;;;;;42.67;23.45;;;5.80;79.10;;;;;;4748939;30;20048;-73
2021/01/08 08:11:14;;;;;;;42.83;23.35;;;5.80;78.80;;;;;;4749585;30;20063;-74
2021/01/08 08:13:40;;;;;;;36.65;22.08;;;5.90;78.80;;;;;;4745288;30;20063;-74
2021/01/08 08:16:06;;;;;;;37.85;22.83;;;5.90;78.70;;;;;;4745505;30;20032;-73
2021/01/08 08:18:32;;;;;;;38.13;21.67;;;6.00;78.60;;;;;;4808654;29;20058;-73
2021/01/08 08:21:09;;;;;;;35.13;20.05;;;6.00;78.50;;;;;;4799638;30;20102;-73
2021/01/08 08:23:35;;;;;;;37.58;22.58;;;6.00;78.40;;;;;;4800618;29;20076;-73
2021/01/08 08:26:01;;;;;;;34.30;21.15;;;5.90;78.30;;;;;;4800889;29;20027;-74
2021/01/08 08:28:27;;;;;;;37.40;21.45;;;5.90;78.40;;;;;;4813009;29;20055;-74
2021/01/08 08:30:53;;;;;;;36.58;21.67;;;6.00;78.60;;;;;;4818704;29;20064;-74
2021/01/08 08:33:21;;;;;;;37.78;22.38;;;6.00;78.60;;;;;;4818914;29;20049;-74
2021/01/08 08:35:47;;;;;;;35.05;20.85;;;6.10;78.50;;;;;;4817049;29;20034;-74
2021/01/08 08:38:12;;;;;;;36.40;20.20;;;6.10;78.20;;;;;;4809338;29;20035;-74
2021/01/08 08:40:38;;;;;;;37.78;20.25;;;6.20;78.20;;;;;;4794017;29;20302;-74
2021/01/08 08:43:04;;;;;;;30.88;17.88;;;6.20;77.90;;;;;;4804187;29;20119;-75
2021/01/08 08:45:31;;;;;;;38.30;20.08;;;6.30;77.10;;;;;;4802440;29;20023;-74
2021/01/08 08:48:06;;;;;;;35.90;21.38;;;6.40;77.50;;;;;;4799879;29;20077;-74
2021/01/08 08:50:33;;;;;;;39.47;20.63;;;6.50;77.50;;;;;;4805497;29;20054;-74
2021/01/08 08:53:12;;;;;;;34.85;20.52;;;6.60;77.30;;;;;;4821777;29;20027;-74
2021/01/08 08:55:38;;;;;;;34.38;19.92;;;6.60;76.90;;;;;;4817551;29;20035;-74
2021/01/08 08:58:11;;;;;;;34.30;20.13;;;6.70;76.60;;;;;;4817957;29;20346;-74
2021/01/08 09:00:43;;;;;;;35.33;19.33;;;6.80;76.70;;;;;;4814006;29;20069;-74
2021/01/08 09:03:16;;;;;;;31.40;19.25;;;6.90;76.40;;;;;;4784014;30;20042;-75
2021/01/08 09:05:43;;;;;;;33.95;19.80;;;7.00;76.10;;;;;;4813592;29;20054;-74
2021/01/08 09:08:20;;;;;;;;;;;7.00;75.90;;;;;;4817100;29;20030;-74
2021/01/08 09:10:56;;;;;;;;;;;7.10;75.40;;;;;;4817477;29;19916;-74
2021/01/08 09:13:50;;;;;;;34.70;18.05;;;7.20;74.70;;;;;;4816878;29;19912;-74
2021/01/08 09:16:25;;;;;;;32.85;17.67;;;7.00;74.40;;;;;;4818046;29;20030;-74
2021/01/08 09:19:11;;;;;;;33.25;19.30;;;6.90;74.50;;;;;;4817094;29;20264;-73
2021/01/08 09:21:48;;;;;;;38.73;18.93;;;7.00;74.80;;;;;;4807726;29;20027;-74
2021/01/08 09:24:21;;;;;;;35.58;20.45;;;6.90;74.50;;;;;;4808525;29;20027;-74
2021/01/08 09:26:47;;;;;;;28.77;16.95;;;7.10;74.50;;;;;;4805734;29;20212;-74
2021/01/08 09:29:29;;;;;;;30.52;18.67;;;7.10;73.90;;;;;;4805669;29;20188;-74
2021/01/08 09:31:56;;;;;;;34.60;19.27;;;7.10;73.80;;;;;;4807233;29;20025;-73
2021/01/08 09:34:23;;;;;;;33.50;20.50;;;7.20;74.00;;;;;;4809294;29;20027;-74
2021/01/08 09:36:50;;;;;;;;;;;7.20;74.00;;;;;;4816883;29;20026;-74
2021/01/08 09:39:16;;;;;;;30.35;18.00;;;7.10;73.20;;;;;;4810001;29;19909;-74
2021/01/08 09:41:43;;;;;;;32.57;18.33;;;7.10;73.50;;;;;;4814775;29;20041;-73
2021/01/08 09:44:10;;;;;;;;;;;7.10;73.30;;;;;;4808187;29;20026;-74
2021/01/08 09:46:50;;;;;;;37.47;18.77;;;7.20;73.20;;;;;;4810601;29;19917;-74
2021/01/08 09:49:16;;;;;;;34.75;19.58;;;7.20;73.00;;;;;;4808376;29;20378;-74
2021/01/08 09:51:42;;;;;;;36.80;19.38;;;7.20;73.10;;;;;;4799708;29;20043;-74
2021/01/08 09:54:08;;;;;;;32.58;19.00;;;7.20;73.30;;;;;;4830240;29;20034;-74
2021/01/08 09:56:33;;;;;;;30.30;16.83;;;7.20;72.60;;;;;;4833978;29;20041;-74
2021/01/08 09:59:14;;;;;;;21.75;13.95;;;7.00;71.90;;;;;;4820980;29;20102;-74
2021/01/08 10:02:00;;;;;;;22.88;13.18;;;7.00;71.30;;;;;;4814828;29;20042;-74
2021/01/08 10:04:33;;;;;;;27.35;14.30;;;7.10;70.10;;;;;;4816127;29;20075;-74
2021/01/08 10:07:04;;;;;;;24.02;14.40;;;7.10;70.20;;;;;;4816263;29;20364;-74
2021/01/08 10:10:02;;;;;;;29.98;16.15;;;7.20;69.50;;;;;;4816715;29;20094;-74
2021/01/08 10:12:28;;;;;;;30.85;16.27;;;7.10;68.90;;;;;;4796597;30;20138;-74
2021/01/08 10:14:59;;;;;;;26.80;16.23;;;7.20;69.40;;;;;;4779880;30;20019;-74
2021/01/08 10:17:24;;;;;;;25.40;15.18;;;7.30;69.50;;;;;;4796416;30;20031;-74
2021/01/08 10:19:51;;;;;;;29.27;17.08;;;7.30;68.70;;;;;;4796165;30;20039;-74
2021/01/08 10:22:19;;;;;;;30.30;16.88;;;7.40;69.10;;;;;;4796674;30;20043;-73
2021/01/08 10:24:45;;;;;;;27.60;16.25;;;7.40;68.50;;;;;;4796733;30;20351;-74
2021/01/08 10:27:11;;;;;;;26.90;15.75;;;7.40;68.80;;;;;;4781253;30;20031;-74
2021/01/08 10:29:38;;;;;;;28.50;15.40;;;7.40;68.60;;;;;;4781656;30;20051;-73
2021/01/08 10:32:12;;;;;;;26.73;16.65;;;7.40;68.30;;;;;;4796726;30;20031;-73
2021/01/08 10:34:43;;;;;;;28.88;15.88;;;7.40;67.60;;;;;;4782758;29;20042;-74
2021/01/08 10:37:19;;;;;;;27.35;15.77;;;7.50;68.30;;;;;;4781434;30;20078;-74
2021/01/08 10:39:46;;;;;;;28.73;16.20;;;7.40;67.30;;;;;;4781578;30;20031;-73
2021/01/08 10:42:12;;;;;;;24.25;15.50;;;7.50;67.00;;;;;;4794938;30;20084;-73
2021/01/08 10:44:38;;;;;;;24.30;14.88;;;7.50;67.20;;;;;;4792743;30;20105;-75
2021/01/08 10:47:05;;;;;;;27.13;17.00;;;7.60;67.00;;;;;;4790182;29;20043;-75
2021/01/08 10:49:31;;;;;;;33.50;17.48;;;7.70;67.10;;;;;;4798196;29;20210;-75
2021/01/08 10:51:56;;;;;;;24.27;15.10;;;7.70;67.10;;;;;;4799925;29;20038;-75
2021/01/08 10:54:22;;;;;;;32.42;18.75;;;7.70;66.90;;;;;;4834051;29;20053;-74
2021/01/08 10:56:48;;;;;;;33.50;19.05;;;7.70;67.50;;;;;;4822969;29;20065;-74
2021/01/08 10:59:13;;;;;;;32.08;20.25;;;7.80;68.80;;;;;;4814958;29;20046;-75
2021/01/08 11:01:41;;;;;;;35.13;21.13;;;7.70;69.80;;;;;;4813526;29;20034;-74
2021/01/08 11:04:07;;;;;;;37.83;22.98;;;7.70;70.20;;;;;;4815938;29;20035;-73
2021/01/08 11:06:32;;;;;;;34.35;21.58;;;7.60;70.80;;;;;;4816118;29;20133;-74
2021/01/08 11:08:58;;;;;;;35.95;22.65;;;7.60;70.90;;;;;;4815703;29;20038;-74
2021/01/08 11:11:24;;;;;;;37.58;22.63;;;7.40;71.60;;;;;;4814880;29;20067;-74
2021/01/08 11:13:50;;;;;;;41.78;23.15;;;7.50;71.60;;;;;;4815979;29;20571;-74
2021/01/08 11:16:15;;;;;;;39.90;24.50;;;7.50;71.70;;;;;;4808601;29;20031;-74
2021/01/08 11:18:41;;;;;;;39.75;23.73;;;7.60;71.70;;;;;;4797886;29;20031;-74
2021/01/08 11:21:07;;;;;;;39.67;24.33;;;7.70;71.60;;;;;;4802638;29;20230;-75
2021/01/08 11:23:33;;;;;;;43.40;24.20;;;7.70;71.70;;;;;;4814606;29;20038;-74
2021/01/08 11:25:58;;;;;;;36.63;21.90;;;7.70;71.70;;;;;;4811572;29;20225;-75
2021/01/08 11:28:24;;;;;;;41.63;23.27;;;7.70;71.40;;;;;;4809841;29;20035;-75
2021/01/08 11:30:50;;;;;;;41.33;21.40;;;7.60;71.60;;;;;;4794734;29;20058;-75
2021/01/08 11:33:15;;;;;;;37.65;20.88;;;7.60;72.00;;;;;;4799661;29;20015;-74
2021/01/08 11:35:41;;;;;;;30.80;19.08;;;7.60;71.60;;;;;;4810284;29;20379;-74
2021/01/08 11:38:07;;;;;;;42.33;21.52;;;7.70;71.70;;;;;;4809809;29;20282;-75
2021/01/08 11:40:32;;;;;;;31.85;19.52;;;7.70;71.30;;;;;;4814242;29;20031;-74
2021/01/08 11:42:58;;;;;;;35.35;19.67;;;7.40;71.10;;;;;;4798948;29;20088;-74
2021/01/08 11:45:24;;;;;;;32.22;19.63;;;7.40;71.30;;;;;;4796315;29;20031;-75
2021/01/08 11:47:49;;;;;;;33.70;18.95;;;7.50;71.40;;;;;;4796861;29;20449;-75
2021/01/08 11:50:15;;;;;;;35.13;19.13;;;7.60;70.60;;;;;;4795668;30;20094;-75
2021/01/08 11:52:41;;;;;;;32.80;19.98;;;7.80;70.20;;;;;;4818366;29;20098;-75
2021/01/08 11:55:08;;;;;;;33.35;19.23;;;7.90;70.10;;;;;;4817044;29;20031;-74
2021/01/08 11:57:34;;;;;;;30.15;18.00;;;7.90;70.10;;;;;;4799445;29;20031;-74
2021/01/08 12:00:00;;;;;;;29.75;18.50;;;8.00;69.30;;;;;;4797434;29;20272;-75
2021/01/08 12:02:26;;;;;;;28.80;18.17;;;7.90;68.70;;;;;;4799702;29;20200;-74
2021/01/08 12:04:51;;;;;;;28.05;18.05;;;8.00;68.80;;;;;;4796212;30;20038;-75
2021/01/08 12:07:17;;;;;;;29.17;18.02;;;7.90;67.80;;;;;;4811400;29;20090;-75
2021/01/08 12:09:43;;;;;;;33.17;17.77;;;8.00;68.40;;;;;;4814299;29;20039;-75
2021/01/08 12:12:09;;;;;;;30.20;18.77;;;8.10;68.60;;;;;;4814067;29;20337;-75
2021/01/08 12:14:35;;;;;;;35.03;20.90;;;8.30;68.50;;;;;;4799155;29;20027;-75
2021/01/08 12:17:08;;;;;;;30.05;18.80;;;8.40;68.10;;;;;;4803563;29;20175;-75
2021/01/08 12:19:35;;;;;;;27.88;17.10;;;8.40;67.70;;;;;;4795620;30;20031;-75
2021/01/08 12:22:02;;;;;;;26.55;17.65;;;8.40;66.70;;;;;;4796996;29;20036;-75
2021/01/08 12:24:27;;;;;;;29.42;16.73;;;8.40;67.00;;;;;;4797292;29;20099;-75
2021/01/08 12:26:55;;;;;;;31.77;17.98;;;8.50;66.20;;;;;;4806943;29;20034;-75
2021/01/08 12:29:21;;;;;;;33.90;18.90;;;8.50;65.70;;;;;;4813956;29;20363;-75
2021/01/08 12:31:47;;;;;;;30.30;18.17;;;8.40;66.60;;;;;;4808905;29;20027;-75
2021/01/08 12:34:13;;;;;;;29.75;17.92;;;8.40;66.70;;;;;;4811905;29;20068;-76
2021/01/08 12:36:38;;;;;;;37.08;18.55;;;8.60;66.60;;;;;;4802739;29;20072;-75
2021/01/08 12:39:05;;;;;;;32.67;18.48;;;8.60;65.40;;;;;;4814270;29;20034;-75
2021/01/08 12:41:31;;;;;;;34.28;19.20;;;8.60;66.00;;;;;;4808439;29;20030;-75
2021/01/08 12:43:57;;;;;;;28.98;17.55;;;8.70;66.40;;;;;;4815272;29;20035;-75
2021/01/08 12:46:23;;;;;;;32.57;18.50;;;8.70;66.10;;;;;;4815111;29;20061;-75
2021/01/08 12:48:49;;;;;;;32.90;17.95;;;8.80;64.70;;;;;;4813863;29;20054;-74
2021/01/08 12:51:15;;;;;;;37.05;19.10;;;8.60;65.20;;;;;;4792769;29;20081;-74
2021/01/08 12:53:42;;;;;;;41.90;22.88;;;8.50;64.70;;;;;;4822653;29;20037;-74
2021/01/08 12:56:08;;;;;;;30.80;18.30;;;8.60;65.90;;;;;;4827766;29;20228;-74
2021/01/08 12:58:33;;;;;;;35.78;18.23;;;8.70;65.20;;;;;;4814932;29;20054;-75
2021/01/08 13:00:59;;;;;;;31.23;19.38;;;8.60;65.60;;;;;;4815907;29;20022;-74
2021/01/08 13:03:25;;;;;;;35.08;20.63;;;8.70;65.60;;;;;;4803735;29;20334;-74
2021/01/08 13:05:50;;;;;;;33.92;19.73;;;8.80;65.50;;;;;;4799930;29;20107;-74
2021/01/08 13:08:17;;;;;;;38.80;21.08;;;8.70;65.80;;;;;;4803899;29;20041;-74
2021/01/08 13:10:43;;;;;;;39.33;20.42;;;8.90;65.90;;;;;;4809689;29;20330;-74
2021/01/08 13:13:09;;;;;;;31.77;19.38;;;8.70;65.40;;;;;;4818102;29;20068;-74
2021/01/08 13:15:35;;;;;;;32.03;19.30;;;8.60;66.00;;;;;;4816959;29;20091;-74
2021/01/08 13:18:01;;;;;;;40.92;22.00;;;8.60;66.00;;;;;;4817897;29;20026;-74
2021/01/08 13:20:27;;;;;;;40.78;21.50;;;8.70;66.50;;;;;;4817146;29;20037;-75
2021/01/08 13:22:52;;;;;;;31.98;18.23;;;8.90;66.50;;;;;;4799697;29;20031;-74
2021/01/08 13:25:18;;;;;;;15.05;9.75;;;9.10;66.00;;;;;;4802841;29;20253;-75
2021/01/08 13:27:44;;;;;;;16.73;9.75;;;8.90;56.00;;;;;;4830449;29;20078;-74
2021/01/08 13:30:10;;;;;;;15.18;8.88;;;8.80;56.70;;;;;;4811924;29;20042;-74
2021/01/08 13:32:38;;;;;;;17.93;9.13;;;8.90;56.70;;;;;;4815696;29;20022;-75
2021/01/08 13:35:04;;;;;;;15.48;9.25;;;8.90;54.90;;;;;;4816434;29;20039;-74
2021/01/08 13:37:30;;;;;;;17.75;10.13;;;9.00;55.50;;;;;;4801814;29;20027;-75
2021/01/08 13:39:56;;;;;;;18.05;10.70;;;9.00;54.30;;;;;;4783536;29;20038;-74
2021/01/08 13:42:22;;;;;;;13.57;9.88;;;9.00;53.60;;;;;;4813800;29;20098;-74
2021/01/08 13:44:47;;;;;;;19.88;11.55;;;8.70;54.80;;;;;;4816361;29;20092;-74
2021/01/08 13:47:13;;;;;;;16.50;10.93;;;8.70;54.20;;;;;;4803917;29;20043;-74
2021/01/08 13:49:39;;;;;;;14.23;9.10;;;8.80;54.30;;;;;;4800456;29;20046;-75
2021/01/08 13:52:10;;;;;;;17.33;10.30;;;8.80;53.50;;;;;;4801717;29;20053;-74
2021/01/08 13:54:36;;;;;;;16.80;10.02;;;8.70;53.90;;;;;;4835563;29;20058;-74
2021/01/08 13:57:02;;;;;;;15.98;10.02;;;8.80;54.60;;;;;;4821506;29;20023;-75
2021/01/08 13:59:27;;;;;;;21.75;10.65;;;8.60;53.80;;;;;;4816029;29;20035;-75
2021/01/08 14:01:53;;;;;;;22.92;12.20;;;8.70;54.30;;;;;;4803377;29;20035;-75
2021/01/08 14:04:19;;;;;;;15.18;10.45;;;8.50;54.60;;;;;;4799154;29;20057;-75
2021/01/08 14:06:47;;;;;;;20.95;11.70;;;8.60;54.60;;;;;;4798123;30;20106;-75
2021/01/08 14:09:13;;;;;;;15.27;9.65;;;8.50;53.80;;;;;;4798963;29;20044;-75
2021/01/08 14:11:40;;;;;;;14.23;9.18;;;8.30;54.00;;;;;;4798167;29;20090;-75
2021/01/08 14:14:07;;;;;;;;;;;8.40;53.90;;;;;;4783482;30;20035;-75
2021/01/08 14:16:32;;;;;;;;;;;8.40;53.90;;;;;;4807674;29;19957;-75
2021/01/08 14:18:59;;;;;;;15.87;9.33;;;8.50;53.90;;;;;;4815927;29;20137;-75
2021/01/08 14:21:35;;;;;;;14.38;9.25;;;8.30;53.60;;;;;;4815692;29;20034;-75
2021/01/08 14:24:01;;;;;;;;;;;8.30;55.20;;;;;;4816163;29;20042;-74
2021/01/08 14:26:29;;;;;;;16.47;9.83;;;8.50;54.40;;;;;;4816690;29;19909;-75
2021/01/08 14:28:55;;;;;;;16.42;9.73;;;8.50;54.50;;;;;;4816675;29;20294;-74
2021/01/08 14:31:35;;;;;;;16.73;9.30;;;8.40;54.10;;;;;;4815577;29;20299;-75
2021/01/08 14:34:04;;;;;;;19.08;10.23;;;8.20;52.70;;;;;;4815583;29;20056;-74
2021/01/08 14:36:31;;;;;;;16.67;9.82;;;8.20;54.30;;;;;;4815566;29;20027;-74
2021/01/08 14:38:57;;;;;;;15.18;9.45;;;8.10;54.10;;;;;;4816669;29;20115;-75
2021/01/08 14:41:25;;;;;;;15.68;10.13;;;8.00;54.40;;;;;;4815507;29;20026;-74
2021/01/08 14:43:51;;;;;;;21.73;11.00;;;8.00;54.80;;;;;;4816377;29;20054;-74
2021/01/08 14:46:18;;;;;;;17.52;11.07;;;8.00;55.00;;;;;;4814876;29;20248;-75
2021/01/08 14:48:45;;;;;;;19.33;11.15;;;7.90;55.30;;;;;;4816411;29;20058;-74
2021/01/08 14:51:11;;;;;;;19.25;11.55;;;7.90;55.60;;;;;;4816354;29;20093;-74
2021/01/08 14:53:38;;;;;;;24.95;14.02;;;7.90;56.00;;;;;;4827442;29;20083;-75
2021/01/08 14:56:10;;;;;;;20.00;12.02;;;7.70;56.10;;;;;;4834680;29;20038;-74
2021/01/08 14:58:36;;;;;;;23.85;13.18;;;7.70;56.50;;;;;;4834499;29;20067;-74
2021/01/08 15:01:04;;;;;;;17.80;10.88;;;7.70;56.40;;;;;;4819580;29;20035;-74
2021/01/08 15:03:30;;;;;;;23.27;13.40;;;7.60;56.70;;;;;;4813265;29;20027;-74
2021/01/08 15:05:57;;;;;;;19.60;11.98;;;7.70;57.10;;;;;;4816163;29;20034;-74
2021/01/08 15:08:22;;;;;;;19.23;11.25;;;7.70;57.00;;;;;;4816153;29;20168;-74
2021/01/08 15:10:55;;;;;;;21.02;11.13;;;7.50;57.40;;;;;;4816091;29;20023;-74
2021/01/08 15:13:21;;;;;;;20.67;12.32;;;7.60;57.60;;;;;;4815595;29;20230;-74
2021/01/08 15:15:47;;;;;;;19.38;11.75;;;7.60;57.50;;;;;;4796053;30;20076;-74
2021/01/08 15:18:13;;;;;;;19.33;10.73;;;7.60;57.40;;;;;;4796575;29;20075;-74
2021/01/08 15:21:05;;;;;;;21.13;12.25;;;7.50;57.50;;;;;;4797764;29;20283;-75
2021/01/08 15:23:32;;;;;;;19.20;12.15;;;7.40;57.50;;;;;;4784086;30;20035;-74
2021/01/08 15:25:58;;;;;;;20.65;11.70;;;7.50;58.00;;;;;;4778145;29;20051;-74
2021/01/08 15:28:25;;;;;;;25.15;13.88;;;7.60;57.90;;;;;;4797897;29;20078;-74
2021/01/08 15:30:52;;;;;;;23.75;14.27;;;7.40;57.80;;;;;;4798925;29;20366;-74
2021/01/08 15:33:18;;;;;;;19.05;12.10;;;7.30;58.20;;;;;;4819041;29;20083;-74
2021/01/08 15:35:44;;;;;;;20.70;12.75;;;7.20;58.50;;;;;;4815815;29;20049;-73
2021/01/08 15:38:10;;;;;;;24.15;13.07;;;7.30;58.50;;;;;;4830624;29;20112;-75
2021/01/08 15:40:36;;;;;;;21.48;12.68;;;7.10;58.60;;;;;;4831135;29;20030;-75
2021/01/08 15:43:03;;;;;;;20.70;12.68;;;7.00;59.10;;;;;;4841615;29;20034;-75
2021/01/08 15:45:29;;;;;;;24.70;12.50;;;6.80;59.30;;;;;;4815854;29;20373;-76
2021/01/08 15:47:55;;;;;;;23.30;13.10;;;6.90;59.80;;;;;;4815315;29;20047;-75
2021/01/08 15:50:21;;;;;;;20.30;11.88;;;6.90;59.80;;;;;;4831059;29;20326;-75
2021/01/08 15:52:46;;;;;;;20.05;11.85;;;6.90;59.70;;;;;;4829566;29;20203;-74
2021/01/08 15:55:13;;;;;;;23.55;13.63;;;6.90;59.50;;;;;;4820106;29;20037;-76
2021/01/08 15:57:39;;;;;;;20.63;13.40;;;7.00;59.30;;;;;;4800898;29;20058;-75
2021/01/08 16:00:07;;;;;;;26.25;15.88;;;7.10;59.50;;;;;;4832609;29;20034;-74
2021/01/08 16:02:32;;;;;;;25.92;15.00;;;7.20;59.30;;;;;;4825814;29;20242;-75
2021/01/08 16:04:58;;;;;;;27.13;14.80;;;7.10;59.30;;;;;;4845217;29;20050;-74
2021/01/08 16:07:25;;;;;;;25.23;14.35;;;6.90;59.30;;;;;;4839232;29;20098;-74
2021/01/08 16:09:50;;;;;;;31.65;16.95;;;6.80;60.20;;;;;;4846603;29;20096;-74
2021/01/08 16:12:16;;;;;;;27.05;15.63;;;7.00;60.00;;;;;;4848947;29;20038;-74
2021/01/08 16:14:42;;;;;;;26.83;16.08;;;7.00;59.90;;;;;;4844992;29;20038;-74
2021/01/08 16:17:08;;;;;;;29.75;17.92;;;6.90;60.00;;;;;;4844533;29;20026;-74
2021/01/08 16:19:34;;;;;;;31.75;17.75;;;6.90;60.20;;;;;;4845558;29;20038;-74
2021/01/08 16:22:00;;;;;;;34.72;19.42;;;6.90;60.40;;;;;;4849765;29;20082;-74
2021/01/08 16:24:26;;;;;;;29.10;17.92;;;6.80;60.50;;;;;;4850966;29;20034;-75
2021/01/08 16:26:51;;;;;;;25.10;16.10;;;6.80;60.40;;;;;;4840430;29;20119;-75
2021/01/08 16:29:18;;;;;;;29.00;16.27;;;6.40;60.90;;;;;;4843439;29;20569;-74
2021/01/08 16:31:51;;;;;;;27.87;17.17;;;6.40;61.40;;;;;;4850978;29;20379;-74